Time;durP1;ratioP1;P1;durP2;ratioP2;P2;SDS_P1;SDS_P2;PMS_P1;PMS_P2;Temp;Humidity;BMP_temperature;BMP_pressure;BME280_temperature;BME280_humidity;BME280_pressure;Samples;Min_cycle;Max_cycle;Signal;HPM_P1;HPM_P2
2023/10/12 00:00:48;;;;;;;0.98;0.80;;;16.20;99.90;;;;;;5070069;28;20056;-77
2023/10/12 00:02:58;;;;;;;1.00;0.90;;;16.20;99.90;;;;;;5080606;28;20063;-76
2023/10/12 00:05:27;;;;;;;1.10;0.90;;;16.20;99.90;;;;;;5094232;28;20128;-77
2023/10/12 00:07:57;;;;;;;1.05;0.95;;;16.20;99.90;;;;;;5081617;28;20097;-76
2023/10/12 00:10:24;;;;;;;0.93;0.88;;;16.20;99.90;;;;;;5081293;28;20073;-77
2023/10/12 00:12:59;;;;;;;0.93;0.90;;;16.20;99.90;;;;;;5087476;28;20048;-76
2023/10/12 00:15:29;;;;;;;1.20;0.88;;;16.20;99.90;;;;;;5085018;28;20477;-77
2023/10/12 00:18:08;;;;;;;0.73;0.70;;;16.20;99.90;;;;;;5086744;28;20143;-77
2023/10/12 00:20:37;;;;;;;1.25;1.10;;;16.20;97.50;;;;;;5085368;28;20051;-77
2023/10/12 00:23:11;;;;;;;1.40;1.27;;;16.20;91.80;;;;;;5099967;28;20477;-77
2023/10/12 00:25:46;;;;;;;1.25;0.98;;;16.20;95.20;;;;;;5084099;28;20055;-77
2023/10/12 00:28:19;;;;;;;1.00;0.90;;;16.20;92.00;;;;;;5099929;28;20127;-77
2023/10/12 00:30:54;;;;;;;1.25;1.00;;;16.20;92.00;;;;;;5079906;28;20040;-77
2023/10/12 00:33:23;;;;;;;1.10;1.00;;;16.20;90.00;;;;;;5091849;28;20112;-77
2023/10/12 00:35:52;;;;;;;1.38;1.13;;;16.20;71.60;;;;;;5066106;28;20123;-77
2023/10/12 00:38:23;;;;;;;1.50;1.20;;;16.20;64.00;;;;;;5067905;28;20078;-76
2023/10/12 00:40:51;;;;;;;1.40;1.13;;;16.20;45.30;;;;;;5081449;28;20127;-77
2023/10/12 00:43:20;;;;;;;1.73;1.23;;;16.10;35.50;;;;;;5091438;28;20508;-76
2023/10/12 00:45:47;;;;;;;1.45;1.20;;;16.10;35.50;;;;;;5083283;28;20105;-76
2023/10/12 00:48:19;;;;;;;1.80;1.25;;;16.10;24.40;;;;;;5082353;28;20052;-77
2023/10/12 00:50:48;;;;;;;1.65;1.23;;;16.10;15.50;;;;;;5095290;28;20074;-76
2023/10/12 00:53:15;;;;;;;1.70;1.23;;;16.20;22.80;;;;;;5094357;28;20112;-76
2023/10/12 00:55:43;;;;;;;1.23;1.10;;;16.20;17.70;;;;;;5070069;28;20399;-77
2023/10/12 00:58:10;;;;;;;1.25;1.00;;;16.10;12.50;;;;;;5103432;28;20058;-76
2023/10/12 01:00:51;;;;;;;1.90;1.40;;;16.10;6.90;;;;;;5105808;28;20070;-76
2023/10/12 01:06:20;;;;;;;1.30;1.13;;;16.20;1.00;;;;;;5084546;28;20040;-77
2023/10/12 01:08:48;;;;;;;1.60;1.10;;;16.20;1.00;;;;;;5095986;28;20448;-77
2023/10/12 01:11:21;;;;;;;1.23;1.13;;;16.20;1.00;;;;;;5091294;28;20291;-76
2023/10/12 01:13:49;;;;;;;1.60;1.23;;;16.20;1.00;;;;;;5068707;28;20522;-77
2023/10/12 01:16:23;;;;;;;1.83;1.35;;;16.20;1.00;;;;;;5101384;28;20079;-77
2023/10/12 01:18:56;;;;;;;1.10;1.00;;;16.20;1.00;;;;;;5080805;28;20177;-77
2023/10/12 01:21:23;;;;;;;1.20;1.10;;;16.20;1.00;;;;;;5085488;28;20539;-77
2023/10/12 01:23:51;;;;;;;1.85;1.17;;;16.30;1.00;;;;;;5097276;28;20051;-77
2023/10/12 01:26:19;;;;;;;2.13;1.60;;;16.30;1.00;;;;;;5092043;28;20508;-77
2023/10/12 01:28:49;;;;;;;1.67;1.42;;;16.30;1.00;;;;;;5096914;28;20051;-77
2023/10/12 01:31:26;;;;;;;1.42;1.33;;;16.30;1.00;;;;;;5101777;28;20043;-77
2023/10/12 01:33:57;;;;;;;1.50;1.40;;;16.30;1.00;;;;;;5102762;28;20059;-77
2023/10/12 01:36:30;;;;;;;1.73;1.27;;;16.40;1.00;;;;;;5092222;28;20052;-77
2023/10/12 01:39:14;;;;;;;2.20;1.70;;;16.40;1.00;;;;;;5082149;28;20051;-77
2023/10/12 01:41:41;;;;;;;;;;;16.40;1.00;;;;;;5071369;28;20093;-77
2023/10/12 01:44:11;;;;;;;1.73;1.23;;;16.40;1.00;;;;;;5100766;28;20433;-76
2023/10/12 01:46:39;;;;;;;1.75;1.30;;;16.40;1.00;;;;;;5089486;28;20052;-78
2023/10/12 01:49:07;;;;;;;2.17;1.58;;;16.50;1.00;;;;;;5101708;28;20066;-78
2023/10/12 01:51:42;;;;;;;1.80;1.50;;;16.50;1.00;;;;;;5095940;28;20439;-78
2023/10/12 01:54:12;;;;;;;2.17;1.10;;;16.50;1.00;;;;;;5089317;28;20054;-78
2023/10/12 01:56:39;;;;;;;1.55;1.10;;;16.50;1.00;;;;;;5106174;28;20482;-78
2023/10/12 01:59:07;;;;;;;1.55;1.23;;;16.50;1.00;;;;;;5088946;28;20148;-78
2023/10/12 02:01:34;;;;;;;1.65;1.20;;;16.50;1.00;;;;;;5072790;28;20131;-78
2023/10/12 02:04:05;;;;;;;1.80;1.35;;;16.60;1.00;;;;;;5073203;28;20079;-79
2023/10/12 02:06:32;;;;;;;2.60;1.52;;;16.60;1.00;;;;;;5108846;28;20047;-78
2023/10/12 02:09:08;;;;;;;1.98;1.35;;;16.60;1.00;;;;;;5107697;27;20059;-78
2023/10/12 02:11:43;;;;;;;1.50;1.15;;;16.60;1.00;;;;;;5094596;28;20133;-78
2023/10/12 02:14:22;;;;;;;1.88;1.35;;;16.70;1.00;;;;;;5087545;28;20105;-79
2023/10/12 02:16:55;;;;;;;1.40;1.23;;;16.70;1.00;;;;;;5087026;28;20052;-78
2023/10/12 02:20:11;;;;;;;2.30;1.23;;;16.70;1.00;;;;;;5090818;28;20040;-78
2023/10/12 02:22:20;;;;;;;2.50;1.25;;;16.70;1.00;;;;;;5102055;28;20059;-78
2023/10/12 02:25:17;;;;;;;1.00;0.90;;;16.80;1.00;;;;;;5091465;28;20813;-78
2023/10/12 02:27:58;;;;;;;0.88;0.85;;;16.70;1.00;;;;;;5086828;28;20136;-78
2023/10/12 02:30:28;;;;;;;1.13;1.02;;;16.80;1.00;;;;;;5090471;28;20077;-78
2023/10/12 02:33:02;;;;;;;1.15;0.82;;;16.80;1.00;;;;;;5107755;28;20102;-78
2023/10/12 02:35:36;;;;;;;1.35;1.10;;;16.80;1.00;;;;;;5079992;28;20126;-78
2023/10/12 02:38:14;;;;;;;1.23;1.13;;;16.80;1.00;;;;;;5089193;28;20036;-78
2023/10/12 02:40:42;;;;;;;1.33;1.10;;;16.80;1.00;;;;;;5084392;28;20097;-78
2023/10/12 02:43:10;;;;;;;1.10;0.90;;;16.80;1.00;;;;;;5083950;28;20044;-78
2023/10/12 02:45:42;;;;;;;1.42;1.00;;;16.80;1.00;;;;;;5107419;28;20039;-78
2023/10/12 02:48:13;;;;;;;1.20;1.10;;;16.80;1.00;;;;;;5106608;28;20047;-78
2023/10/12 02:53:39;;;;;;;1.33;0.93;;;16.90;1.00;;;;;;5081059;28;20043;-78
2023/10/12 02:56:06;;;;;;;1.40;0.90;;;16.80;1.00;;;;;;5104700;28;20064;-77
2023/10/12 02:58:33;;;;;;;1.80;0.90;;;16.90;1.00;;;;;;5106088;28;20093;-77
2023/10/12 03:01:12;;;;;;;1.10;0.90;;;16.90;1.00;;;;;;5104272;28;20063;-77
2023/10/12 03:03:47;;;;;;;0.73;0.70;;;16.80;1.00;;;;;;5094585;28;20043;-77
2023/10/12 03:06:21;;;;;;;1.50;0.93;;;16.80;1.00;;;;;;5086015;28;20120;-77
2023/10/12 03:11:34;;;;;;;0.50;0.50;;;16.90;1.00;;;;;;5084529;28;19946;-77
2023/10/12 03:14:01;;;;;;;;;;;16.90;1.00;;;;;;5095646;28;20109;-77
2023/10/12 03:16:34;;;;;;;0.85;0.80;;;16.90;1.00;;;;;;5098780;28;20003;-77
2023/10/12 03:19:06;;;;;;;0.77;0.77;;;16.90;1.00;;;;;;5085886;28;20054;-77
2023/10/12 03:21:33;;;;;;;0.82;0.68;;;16.90;1.00;;;;;;5085406;28;20067;-77
2023/10/12 03:24:03;;;;;;;0.70;0.60;;;16.90;1.00;;;;;;5095684;28;20061;-77
2023/10/12 03:26:32;;;;;;;0.63;0.55;;;16.90;1.00;;;;;;5086309;28;20042;-77
2023/10/12 03:31:40;;;;;;;0.80;0.80;;;16.90;1.00;;;;;;5085059;28;20508;-77
2023/10/12 03:34:16;;;;;;;0.93;0.77;;;16.90;1.00;;;;;;5096684;28;20055;-78
2023/10/12 03:36:48;;;;;;;0.70;0.63;;;17.00;1.00;;;;;;5086245;28;20086;-78
2023/10/12 03:39:27;;;;;;;1.30;0.80;;;17.00;1.00;;;;;;5087799;28;20043;-77
2023/10/12 03:41:55;;;;;;;0.80;0.70;;;17.00;1.00;;;;;;5105207;28;20047;-78
2023/10/12 03:47:00;;;;;;;1.25;1.13;;;17.00;1.00;;;;;;5073240;28;20044;-77
2023/10/12 03:49:43;;;;;;;1.13;0.90;;;17.00;1.00;;;;;;5069958;28;20198;-77
2023/10/12 03:52:14;;;;;;;1.03;0.90;;;17.00;1.00;;;;;;5085311;28;20056;-77
2023/10/12 03:54:55;;;;;;;1.92;1.10;;;17.00;1.00;;;;;;5100501;28;20052;-78
2023/10/12 03:57:28;;;;;;;1.55;0.82;;;17.00;1.00;;;;;;5084585;28;20075;-77
2023/10/12 04:05:21;;;;;;;1.05;0.95;;;17.10;1.00;;;;;;5089456;28;20043;-77
2023/10/12 04:13:49;;;;;;;1.23;0.80;;;17.10;1.00;;;;;;5086280;28;20048;-78
2023/10/12 04:18:42;;;;;;;1.00;0.90;;;17.10;1.00;;;;;;5105384;28;20048;-77
2023/10/12 04:21:10;;;;;;;0.77;0.73;;;17.10;1.00;;;;;;5104981;28;20040;-77
2023/10/12 04:24:27;;;;;;;1.13;0.82;;;17.10;1.00;;;;;;5088345;28;20054;-77
2023/10/12 04:34:12;;;;;;;;;;;17.20;1.00;;;;;;5107119;28;20550;-77
2023/10/12 04:39:26;;;;;;;1.60;0.90;;;17.20;1.00;;;;;;5109866;28;20071;-76
2023/10/12 04:44:39;;;;;;;1.63;1.02;;;17.10;99.90;;;;;;5093387;28;20051;-77
2023/10/12 04:47:09;;;;;;;1.13;0.90;;;16.90;99.90;;;;;;5099269;28;20062;-77
2023/10/12 04:55:06;;;;;;;0.93;0.82;;;16.60;99.90;;;;;;5086586;28;20044;-77
2023/10/12 04:57:34;;;;;;;0.70;0.70;;;16.50;1.00;;;;;;5085785;28;20101;-77
2023/10/12 05:07:53;;;;;;;0.75;0.73;;;16.50;1.00;;;;;;5086904;28;20617;-76
2023/10/12 05:10:26;;;;;;;0.77;0.65;;;16.40;1.00;;;;;;5090218;28;20047;-76
2023/10/12 05:13:22;;;;;;;0.88;0.73;;;16.40;99.90;;;;;;5102834;28;20062;-76
2023/10/12 05:15:56;;;;;;;0.30;0.30;;;16.40;99.90;;;;;;5094443;28;20044;-76
2023/10/12 05:18:24;;;;;;;0.40;0.40;;;16.40;99.90;;;;;;5098603;28;20052;-76
2023/10/12 05:20:51;;;;;;;0.40;0.40;;;16.40;99.90;;;;;;5072577;28;20052;-76
2023/10/12 05:23:18;;;;;;;0.50;0.43;;;16.40;99.90;;;;;;5090445;28;20051;-77
2023/10/12 05:25:50;;;;;;;0.40;0.40;;;16.40;99.90;;;;;;5105295;28;20117;-77
2023/10/12 05:28:18;;;;;;;0.28;0.22;;;16.40;99.90;;;;;;5075636;28;20055;-76
2023/10/12 05:36:12;;;;;;;0.55;0.55;;;16.40;99.90;;;;;;5098242;28;20054;-76
2023/10/12 05:38:52;;;;;;;0.52;0.43;;;16.40;99.90;;;;;;5089793;28;20100;-77
2023/10/12 05:41:38;;;;;;;1.05;0.95;;;16.40;99.90;;;;;;5089829;28;20130;-76
2023/10/12 05:44:14;;;;;;;0.45;0.43;;;16.40;99.90;;;;;;5071904;28;20039;-76
2023/10/12 05:46:44;;;;;;;0.90;0.57;;;16.40;99.90;;;;;;5085594;28;20109;-77
2023/10/12 05:49:14;;;;;;;0.82;0.73;;;16.30;99.90;;;;;;5086672;28;20406;-77
2023/10/12 05:51:44;;;;;;;0.57;0.55;;;16.30;99.90;;;;;;5093151;28;20055;-77
2023/10/12 05:54:15;;;;;;;0.93;0.80;;;16.30;99.90;;;;;;5077320;28;20052;-77
2023/10/12 05:56:43;;;;;;;0.80;0.63;;;16.30;99.90;;;;;;5079283;28;20043;-77
2023/10/12 05:59:13;;;;;;;0.70;0.70;;;16.20;99.90;;;;;;5080562;28;20043;-77
2023/10/12 06:01:45;;;;;;;0.57;0.50;;;16.20;99.90;;;;;;5091456;28;20059;-77
2023/10/12 06:04:15;;;;;;;1.00;0.90;;;16.20;99.90;;;;;;5094730;28;20070;-77
2023/10/12 06:06:43;;;;;;;0.70;0.70;;;16.20;99.90;;;;;;5079731;28;20048;-78
2023/10/12 06:09:14;;;;;;;0.63;0.63;;;16.20;99.90;;;;;;5099020;28;20452;-78
2023/10/12 06:11:42;;;;;;;0.60;0.60;;;16.10;99.90;;;;;;5092524;28;20121;-77
2023/10/12 06:14:09;;;;;;;0.40;0.40;;;16.00;99.90;;;;;;5091669;28;20048;-78
2023/10/12 06:16:40;;;;;;;0.50;0.50;;;16.00;99.90;;;;;;5046049;28;1222430;-76
2023/10/12 06:19:18;;;;;;;0.50;0.50;;;16.00;99.90;;;;;;5085054;28;20442;-77
2023/10/12 06:21:45;;;;;;;0.40;0.40;;;16.00;99.90;;;;;;5087957;28;20170;-78
2023/10/12 06:24:13;;;;;;;0.30;0.30;;;15.90;99.90;;;;;;5094353;28;20048;-78
2023/10/12 06:26:44;;;;;;;0.40;0.40;;;16.00;99.90;;;;;;5062299;28;20525;-77
2023/10/12 06:29:12;;;;;;;0.47;0.47;;;16.00;99.90;;;;;;5067447;27;20058;-77
2023/10/12 06:31:40;;;;;;;0.57;0.57;;;15.90;99.90;;;;;;5101145;27;20807;-77
2023/10/12 06:34:11;;;;;;;0.45;0.45;;;15.90;99.90;;;;;;5080013;28;20518;-77
2023/10/12 06:36:38;;;;;;;0.40;0.40;;;15.80;99.90;;;;;;5092610;28;20044;-76
2023/10/12 06:44:34;;;;;;;0.52;0.50;;;15.90;99.90;;;;;;5083083;28;20493;-75
2023/10/12 06:47:23;;;;;;;0.40;0.40;;;15.80;99.90;;;;;;5103932;28;20066;-76
2023/10/12 06:49:46;;;;;;;1.73;0.47;;;15.80;99.90;;;;;;5106721;28;20047;-78
2023/10/12 06:52:13;;;;;;;0.47;0.47;;;15.80;99.90;;;;;;5105736;28;20493;-78
2023/10/12 06:54:49;;;;;;;0.40;0.40;;;15.80;99.90;;;;;;5105838;27;20083;-78
2023/10/12 06:59:52;;;;;;;0.43;0.40;;;15.80;99.90;;;;;;5106275;28;20047;-78
2023/10/12 07:02:27;;;;;;;0.30;0.30;;;15.80;99.90;;;;;;5084800;28;20058;-78
2023/10/12 07:04:55;;;;;;;0.50;0.50;;;15.90;99.90;;;;;;5102567;28;20054;-81
2023/10/12 07:07:36;;;;;;;0.40;0.40;;;15.90;99.90;;;;;;5102933;28;20522;-81
2023/10/12 07:12:41;;;;;;;0.60;0.60;;;15.90;99.90;;;;;;5104007;28;20152;-82
2023/10/12 07:15:12;;;;;;;0.52;0.50;;;15.80;99.90;;;;;;5103706;28;20508;-82
2023/10/12 07:17:49;;;;;;;0.60;0.60;;;15.80;99.90;;;;;;5089607;28;20117;-81
2023/10/12 07:20:40;;;;;;;0.93;0.70;;;15.80;99.90;;;;;;5100106;28;20281;-82
2023/10/12 07:23:20;;;;;;;0.57;0.57;;;15.80;99.90;;;;;;5106565;28;20043;-81
2023/10/12 07:25:48;;;;;;;0.70;0.50;;;15.90;99.90;;;;;;5072543;28;20044;-81
2023/10/12 07:28:39;;;;;;;0.45;0.43;;;15.90;99.90;;;;;;5086329;28;20039;-82
2023/10/12 07:36:35;;;;;;;0.55;0.55;;;15.90;99.90;;;;;;5086977;28;20489;-81
2023/10/12 07:39:22;;;;;;;0.55;0.55;;;15.90;99.90;;;;;;5088319;28;20528;-82
2023/10/12 07:42:02;;;;;;;0.68;0.60;;;15.90;99.90;;;;;;5106033;28;20059;-82
2023/10/12 07:47:49;;;;;;;0.40;0.40;;;15.90;99.90;;;;;;5092043;28;20079;-82
2023/10/12 07:50:14;;;;;;;0.50;0.50;;;15.90;99.90;;;;;;5090814;28;20142;-83
2023/10/12 07:55:15;;;;;;;0.50;0.50;;;15.90;99.90;;;;;;5104136;28;20112;-82
2023/10/12 07:57:45;;;;;;;0.75;0.55;;;15.90;99.90;;;;;;5104457;28;20051;-83
2023/10/12 08:13:15;;;;;;;0.40;0.40;;;15.70;99.90;;;;;;5105636;28;20406;-82
2023/10/12 08:21:26;;;;;;;0.38;0.38;;;15.80;99.90;;;;;;5085860;28;20086;-83
2023/10/12 08:29:18;;;;;;;0.38;0.38;;;15.90;99.90;;;;;;5095352;27;20062;-82
2023/10/12 08:31:45;;;;;;;0.57;0.57;;;15.90;99.90;;;;;;5082116;28;20048;-82
2023/10/12 08:39:51;;;;;;;0.55;0.50;;;16.00;99.90;;;;;;5081631;28;20070;-78
2023/10/12 08:44:58;;;;;;;0.50;0.40;;;16.10;99.90;;;;;;5091707;28;20056;-81
2023/10/12 08:47:44;;;;;;;0.60;0.57;;;16.10;99.90;;;;;;5098646;28;20055;-81
2023/10/12 08:52:50;;;;;;;0.80;0.73;;;16.10;99.90;;;;;;5083706;28;20048;-81
2023/10/12 08:55:24;;;;;;;0.88;0.63;;;16.10;99.90;;;;;;5082873;28;20338;-81
2023/10/12 08:58:15;;;;;;;0.68;0.60;;;16.00;99.90;;;;;;5090748;28;20484;-81
2023/10/12 09:00:44;;;;;;;2.05;1.50;;;16.00;99.90;;;;;;5081102;28;20078;-81
2023/10/12 09:03:24;;;;;;;2.25;1.27;;;16.00;99.90;;;;;;5082545;28;20262;-80
2023/10/12 09:05:52;;;;;;;2.20;1.40;;;16.00;99.90;;;;;;5096514;28;20497;-80
2023/10/12 09:10:49;;;;;;;0.93;0.80;;;16.00;99.90;;;;;;5077498;28;20047;-81
2023/10/12 09:13:17;;;;;;;1.65;1.30;;;16.00;99.90;;;;;;5092011;28;20130;-80
2023/10/12 09:15:48;;;;;;;1.25;0.82;;;15.90;99.90;;;;;;5108661;28;20052;-81
2023/10/12 09:18:18;;;;;;;1.55;1.00;;;15.80;99.90;;;;;;5090975;28;20059;-81
2023/10/12 09:21:15;;;;;;;1.20;0.98;;;15.80;99.90;;;;;;5089080;28;20386;-80
2023/10/12 09:31:13;;;;;;;1.38;1.20;;;15.80;99.90;;;;;;5105304;28;20051;-82
2023/10/12 09:33:45;;;;;;;1.03;0.87;;;15.90;99.90;;;;;;5107676;28;20498;-81
2023/10/12 09:36:12;;;;;;;0.80;0.80;;;16.00;99.90;;;;;;5090870;28;20284;-81
2023/10/12 09:38:38;;;;;;;1.15;0.60;;;16.00;99.90;;;;;;5107681;28;20047;-80
2023/10/12 09:41:08;;;;;;;1.02;0.88;;;16.10;99.90;;;;;;5107736;28;20127;-80
2023/10/12 09:43:38;;;;;;;0.60;0.40;;;16.20;99.90;;;;;;5106725;28;20055;-80
2023/10/12 09:46:09;;;;;;;0.60;0.60;;;16.20;89.90;;;;;;5108461;28;20385;-81
2023/10/12 09:48:39;;;;;;;0.63;0.63;;;16.20;1.00;;;;;;5087703;28;20126;-81
2023/10/12 09:51:15;;;;;;;0.70;0.57;;;16.20;1.00;;;;;;5103418;28;20052;-81
2023/10/12 09:53:44;;;;;;;0.55;0.50;;;16.20;1.00;;;;;;5086607;28;20070;-81
2023/10/12 09:56:15;;;;;;;0.40;0.40;;;16.30;1.00;;;;;;5103028;28;20431;-81
2023/10/12 09:58:51;;;;;;;0.50;0.50;;;16.40;1.00;;;;;;5090181;28;20446;-81
2023/10/12 10:01:29;;;;;;;0.50;0.50;;;16.60;99.90;;;;;;5101791;28;20073;-81
2023/10/12 10:04:27;;;;;;;0.50;0.50;;;16.70;99.90;;;;;;5102409;28;20044;-82
2023/10/12 10:06:45;;;;;;;0.40;0.40;;;16.70;99.90;;;;;;5105973;28;20074;-81
2023/10/12 10:09:24;;;;;;;0.50;0.50;;;16.90;99.90;;;;;;5086182;28;20121;-81
2023/10/12 10:11:59;;;;;;;0.40;0.40;;;16.90;5.40;;;;;;5088000;28;20058;-82
2023/10/12 10:14:34;;;;;;;0.52;0.50;;;16.90;81.80;;;;;;5087643;28;20051;-82
2023/10/12 10:17:01;;;;;;;1.02;0.55;;;17.00;37.90;;;;;;5103448;28;20537;-82
2023/10/12 10:19:31;;;;;;;0.40;0.40;;;17.00;99.90;;;;;;5104163;27;20534;-83
2023/10/12 10:22:05;;;;;;;0.82;0.60;;;17.10;1.00;;;;;;5104615;28;20300;-82
2023/10/12 10:24:43;;;;;;;0.73;0.50;;;17.10;1.00;;;;;;5071184;28;20503;-83
2023/10/12 10:27:11;;;;;;;0.70;0.70;;;17.20;1.00;;;;;;5103735;28;20458;-82
2023/10/12 10:29:53;;;;;;;0.47;0.38;;;17.30;1.00;;;;;;5071175;28;20082;-83
2023/10/12 10:32:29;;;;;;;0.75;0.52;;;17.30;99.90;;;;;;5087084;28;20055;-83
2023/10/12 10:35:04;;;;;;;0.40;0.40;;;17.30;99.90;;;;;;5085951;28;20462;-82
2023/10/12 10:38:00;;;;;;;0.60;0.50;;;17.20;1.00;;;;;;5105638;28;20126;-83
2023/10/12 10:40:44;;;;;;;0.40;0.40;;;17.10;69.80;;;;;;5084445;28;20154;-81
2023/10/12 10:43:15;;;;;;;0.50;0.30;;;17.00;99.90;;;;;;5103063;28;20047;-81
2023/10/12 10:45:56;;;;;;;0.43;0.43;;;16.90;1.00;;;;;;5087361;28;20048;-81
2023/10/12 10:48:23;;;;;;;0.60;0.60;;;16.90;1.00;;;;;;5071997;28;20044;-81
2023/10/12 10:51:19;;;;;;;0.40;0.38;;;16.90;1.00;;;;;;5102791;28;20154;-81
2023/10/12 10:53:52;;;;;;;0.40;0.40;;;17.00;1.00;;;;;;5105474;28;20387;-81
2023/10/12 10:56:38;;;;;;;0.43;0.43;;;17.00;1.00;;;;;;5104974;28;20139;-81
2023/10/12 10:59:06;;;;;;;0.32;0.32;;;17.10;99.90;;;;;;5086576;28;20056;-79
2023/10/12 11:01:33;;;;;;;0.50;0.50;;;17.20;99.90;;;;;;5105795;28;20154;-79
2023/10/12 11:04:01;;;;;;;0.43;0.43;;;17.20;99.90;;;;;;5103342;28;20055;-79
2023/10/12 11:06:28;;;;;;;0.40;0.30;;;17.30;99.90;;;;;;5085012;28;20501;-80
2023/10/12 11:09:08;;;;;;;0.40;0.40;;;17.30;99.90;;;;;;5103974;28;20039;-80
2023/10/12 11:11:38;;;;;;;0.40;0.40;;;17.30;99.90;;;;;;5074507;28;20094;-81
2023/10/12 11:14:08;;;;;;;0.98;0.60;;;17.30;99.90;;;;;;5071211;28;20398;-81
2023/10/12 11:16:36;;;;;;;0.60;0.50;;;17.20;99.90;;;;;;5085052;28;20493;-79
2023/10/12 11:19:08;;;;;;;0.55;0.50;;;17.10;99.90;;;;;;5068886;28;20535;-79
2023/10/12 11:21:35;;;;;;;0.30;0.30;;;17.00;1.00;;;;;;5089002;28;20075;-80
2023/10/12 11:24:03;;;;;;;0.40;0.40;;;17.00;99.90;;;;;;5102677;28;20237;-80
2023/10/12 11:26:39;;;;;;;0.30;0.30;;;16.90;99.90;;;;;;5084856;28;20129;-81
2023/10/12 11:29:06;;;;;;;0.50;0.50;;;16.90;99.90;;;;;;5087382;28;20089;-82
2023/10/12 11:31:34;;;;;;;0.40;0.40;;;16.90;1.00;;;;;;5106445;28;20151;-82
2023/10/12 11:34:07;;;;;;;0.40;0.40;;;16.90;99.90;;;;;;5106373;28;20044;-82
2023/10/12 11:36:35;;;;;;;0.40;0.40;;;16.90;99.90;;;;;;5105085;28;20051;-83
2023/10/12 11:39:10;;;;;;;0.52;0.52;;;16.80;99.90;;;;;;5088160;28;20239;-83
2023/10/12 11:41:37;;;;;;;1.65;0.82;;;16.80;1.00;;;;;;5103345;28;20447;-83
2023/10/12 11:44:05;;;;;;;0.55;0.40;;;16.70;99.90;;;;;;5068086;28;20051;-84
2023/10/12 11:46:43;;;;;;;0.40;0.40;;;16.70;99.90;;;;;;5085379;28;20087;-83
2023/10/12 11:49:13;;;;;;;0.55;0.40;;;16.70;99.90;;;;;;5088897;28;20051;-84
2023/10/12 11:51:53;;;;;;;0.47;0.45;;;16.70;99.90;;;;;;5101430;28;20050;-84
2023/10/12 11:54:19;;;;;;;0.40;0.40;;;16.80;1.00;;;;;;5102011;28;20402;-84
2023/10/12 11:56:52;;;;;;;0.50;0.50;;;16.80;99.90;;;;;;5103609;28;20489;-83
2023/10/12 11:59:31;;;;;;;0.60;0.50;;;16.90;1.00;;;;;;5104571;28;20055;-83
2023/10/12 12:02:06;;;;;;;0.40;0.40;;;17.00;99.90;;;;;;5103819;28;20050;-87
2023/10/12 12:04:39;;;;;;;0.50;0.50;;;17.20;99.90;;;;;;5100449;28;20079;-83
2023/10/12 12:07:20;;;;;;;0.60;0.60;;;17.30;44.70;;;;;;5098199;28;20078;-83
2023/10/12 12:09:48;;;;;;;0.50;0.50;;;17.30;1.00;;;;;;5085443;28;20160;-83
2023/10/12 12:12:16;;;;;;;0.43;0.43;;;17.30;99.90;;;;;;5078449;28;20052;-83
2023/10/12 12:14:47;;;;;;;0.82;0.60;;;17.30;99.90;;;;;;5079395;28;20048;-83
2023/10/12 12:17:17;;;;;;;0.68;0.65;;;17.40;1.00;;;;;;5081667;28;20065;-83
2023/10/12 12:19:44;;;;;;;0.60;0.57;;;17.50;99.90;;;;;;5092341;28;20079;-83
2023/10/12 12:22:13;;;;;;;0.60;0.60;;;17.50;99.90;;;;;;5088791;28;20051;-83
2023/10/12 12:24:46;;;;;;;0.80;0.73;;;17.60;99.90;;;;;;5091872;28;20740;-82
2023/10/12 12:29:59;;;;;;;0.60;0.60;;;17.70;99.90;;;;;;5090101;28;20100;-83
2023/10/12 12:32:45;;;;;;;1.10;0.80;;;17.70;1.00;;;;;;5081136;28;20073;-82
2023/10/12 12:35:15;;;;;;;1.10;1.00;;;17.70;99.90;;;;;;5090457;28;20128;-83
2023/10/12 12:37:42;;;;;;;0.90;0.77;;;17.60;91.20;;;;;;5075931;28;20048;-81
2023/10/12 12:42:51;;;;;;;1.65;1.35;;;17.60;99.90;;;;;;5096565;28;20040;-81
2023/10/12 12:45:18;;;;;;;1.30;1.20;;;17.40;1.00;;;;;;5096046;28;20058;-81
2023/10/12 12:47:45;;;;;;;1.20;1.00;;;17.40;99.90;;;;;;5087735;28;20050;-82
2023/10/12 12:50:12;;;;;;;0.98;0.77;;;17.40;99.90;;;;;;5091760;28;20117;-81
2023/10/12 12:52:40;;;;;;;1.38;1.00;;;17.30;1.00;;;;;;5098541;28;20908;-82
2023/10/12 12:55:10;;;;;;;1.02;0.93;;;17.30;1.00;;;;;;5087555;28;20151;-81
2023/10/12 12:57:38;;;;;;;0.93;0.82;;;17.20;99.90;;;;;;5079951;28;20056;-81
2023/10/12 13:00:10;;;;;;;0.80;0.80;;;17.20;99.90;;;;;;5091187;28;20047;-82
2023/10/12 13:02:36;;;;;;;0.93;0.70;;;17.10;99.90;;;;;;5061976;28;20048;-82
2023/10/12 13:05:07;;;;;;;0.80;0.80;;;17.10;99.90;;;;;;5076692;28;20224;-82
2023/10/12 13:07:34;;;;;;;1.13;0.93;;;17.10;99.90;;;;;;5092392;28;20056;-82
2023/10/12 13:10:01;;;;;;;1.10;0.98;;;17.10;99.90;;;;;;5094432;28;20094;-83
2023/10/12 13:12:31;;;;;;;0.80;0.77;;;17.20;1.00;;;;;;5085974;28;20412;-83
2023/10/12 13:15:01;;;;;;;0.63;0.63;;;17.20;21.70;;;;;;5088430;28;20054;-85
2023/10/12 13:17:30;;;;;;;1.00;0.90;;;17.30;1.00;;;;;;5083115;28;20056;-84
2023/10/12 13:20:00;;;;;;;1.08;0.77;;;17.40;99.90;;;;;;5087041;28;20043;-84
2023/10/12 13:22:27;;;;;;;0.70;0.70;;;17.50;1.00;;;;;;5102274;28;20059;-85
2023/10/12 13:24:56;;;;;;;0.88;0.70;;;17.50;99.90;;;;;;5074843;28;20440;-84
2023/10/12 13:27:27;;;;;;;0.60;0.60;;;17.50;99.90;;;;;;5064640;28;20150;-85
2023/10/12 13:30:00;;;;;;;0.60;0.60;;;17.50;99.90;;;;;;5085221;28;20489;-85
2023/10/12 13:32:26;;;;;;;0.80;0.80;;;17.60;99.90;;;;;;5091111;28;20566;-85
2023/10/12 13:34:57;;;;;;;0.90;0.77;;;17.70;99.90;;;;;;5093726;28;20144;-84
2023/10/12 13:37:30;;;;;;;1.00;0.90;;;17.70;99.90;;;;;;5090975;27;20074;-83
2023/10/12 13:39:58;;;;;;;1.10;1.00;;;17.70;1.00;;;;;;5090680;28;20421;-84
2023/10/12 13:42:28;;;;;;;0.80;0.80;;;17.70;1.00;;;;;;5082014;28;20047;-85
2023/10/12 13:44:56;;;;;;;1.60;1.40;;;17.80;99.90;;;;;;5079371;28;20305;-85
2023/10/12 13:47:25;;;;;;;1.25;1.00;;;17.80;99.90;;;;;;5101380;28;20078;-87
2023/10/12 13:49:54;;;;;;;1.30;1.20;;;17.80;99.90;;;;;;5069164;28;20051;-87
2023/10/12 13:52:20;;;;;;;1.17;1.08;;;17.80;99.90;;;;;;5091864;28;20101;-83
2023/10/12 13:54:52;;;;;;;1.10;1.00;;;17.80;1.00;;;;;;5088886;28;20052;-88
2023/10/12 13:57:19;;;;;;;1.10;1.00;;;17.70;1.00;;;;;;5097398;28;20112;-86
2023/10/12 13:59:47;;;;;;;0.98;0.90;;;17.70;74.40;;;;;;5084196;28;20420;-87
2023/10/12 14:02:14;;;;;;;1.27;1.17;;;17.70;99.90;;;;;;5090648;28;20052;-85
2023/10/12 14:04:41;;;;;;;1.00;0.90;;;17.70;99.90;;;;;;5093075;28;20563;-87
2023/10/12 14:07:09;;;;;;;1.10;1.00;;;17.70;1.00;;;;;;5104567;28;20052;-88
2023/10/12 14:09:39;;;;;;;0.70;0.70;;;17.60;1.00;;;;;;5083179;28;20393;-83
2023/10/12 14:12:06;;;;;;;0.93;0.82;;;17.60;99.90;;;;;;5082280;28;20059;-85
2023/10/12 14:14:33;;;;;;;0.77;0.75;;;17.60;1.00;;;;;;5091025;28;20067;-88
2023/10/12 14:17:01;;;;;;;0.95;0.70;;;17.60;68.70;;;;;;5085423;28;20040;-85
2023/10/12 14:19:29;;;;;;;0.80;0.80;;;17.60;1.00;;;;;;5096279;28;20563;-85
2023/10/12 14:21:57;;;;;;;0.95;0.77;;;17.50;99.90;;;;;;5096343;28;20471;-85
2023/10/12 14:24:24;;;;;;;0.75;0.75;;;17.50;99.90;;;;;;5089282;28;20063;-83
2023/10/12 14:26:55;;;;;;;0.77;0.77;;;17.40;99.90;;;;;;5092997;28;20584;-86
2023/10/12 14:29:24;;;;;;;0.80;0.60;;;17.30;99.90;;;;;;5077463;28;20044;-80
2023/10/12 14:31:52;;;;;;;0.98;0.80;;;17.30;1.00;;;;;;5062484;28;20051;-82
2023/10/12 14:34:19;;;;;;;0.47;0.47;;;17.40;99.90;;;;;;5099540;28;20069;-81
2023/10/12 14:36:46;;;;;;;0.50;0.50;;;17.30;99.90;;;;;;5083132;28;20501;-82
2023/10/12 14:39:22;;;;;;;0.50;0.50;;;17.30;1.00;;;;;;5096447;28;20047;-82
2023/10/12 14:41:50;;;;;;;0.80;0.73;;;17.30;17.00;;;;;;5072479;28;20052;-82
2023/10/12 14:44:17;;;;;;;0.80;0.80;;;17.30;76.30;;;;;;5082671;28;20043;-82
2023/10/12 14:46:45;;;;;;;0.55;0.55;;;17.20;99.90;;;;;;5091992;28;20136;-82
2023/10/12 14:49:14;;;;;;;0.80;0.68;;;17.20;99.90;;;;;;5097589;28;20066;-82
2023/10/12 14:51:42;;;;;;;0.85;0.65;;;17.20;99.90;;;;;;5096354;28;20120;-82
2023/10/12 14:54:10;;;;;;;0.60;0.60;;;17.20;99.90;;;;;;5099954;28;20421;-83
2023/10/12 14:56:38;;;;;;;1.02;0.60;;;17.20;62.30;;;;;;5099435;28;20505;-82
2023/10/12 14:59:05;;;;;;;0.80;0.70;;;17.20;99.90;;;;;;5098315;28;20294;-82
2023/10/12 15:01:32;;;;;;;0.50;0.50;;;17.30;99.90;;;;;;5093576;28;20058;-83
2023/10/12 15:03:59;;;;;;;0.68;0.63;;;17.30;99.90;;;;;;5100447;28;20533;-83
2023/10/12 15:06:31;;;;;;;0.40;0.40;;;17.40;99.90;;;;;;5084420;28;20051;-84
2023/10/12 15:08:58;;;;;;;0.50;0.50;;;17.40;98.30;;;;;;5101005;28;20043;-82
2023/10/12 15:11:25;;;;;;;0.52;0.52;;;17.40;99.90;;;;;;5104047;28;20142;-84
2023/10/12 15:13:53;;;;;;;0.60;0.60;;;17.40;99.90;;;;;;5105825;28;20473;-85
2023/10/12 15:16:21;;;;;;;0.65;0.55;;;17.40;33.40;;;;;;5107215;28;20078;-85
2023/10/12 15:18:48;;;;;;;0.50;0.50;;;17.40;1.00;;;;;;5106292;28;20044;-83
2023/10/12 15:21:16;;;;;;;0.75;0.60;;;17.40;1.00;;;;;;5106811;28;20567;-83
2023/10/12 15:23:57;;;;;;;0.50;0.50;;;17.40;99.90;;;;;;5104432;28;20132;-83